sensor_id;sensor_type;location;lat;lon;timestamp;temperature;humidity
75683;HTU21D;64295;44.772;39.872;2024-01-15T00:01:02;-2.56;67.40
75683;HTU21D;64295;44.772;39.872;2024-01-15T00:06:13;-2.64;67.54
75683;HTU21D;64295;44.772;39.872;2024-01-15T00:08:40;-2.62;67.55
75683;HTU21D;64295;44.772;39.872;2024-01-15T00:11:06;-2.59;67.49
75683;HTU21D;64295;44.772;39.872;2024-01-15T00:13:31;-2.54;67.37
75683;HTU21D;64295;44.772;39.872;2024-01-15T00:15:57;-2.54;67.39
75683;HTU21D;64295;44.772;39.872;2024-01-15T00:18:23;-2.53;67.39
75683;HTU21D;64295;44.772;39.872;2024-01-15T00:20:49;-2.47;67.34
75683;HTU21D;64295;44.772;39.872;2024-01-15T00:23:15;-2.43;67.25
75683;HTU21D;64295;44.772;39.872;2024-01-15T00:25:41;-2.43;67.23
75683;HTU21D;64295;44.772;39.872;2024-01-15T00:28:07;-2.44;67.27
75683;HTU21D;64295;44.772;39.872;2024-01-15T00:30:33;-2.39;67.25
75683;HTU21D;64295;44.772;39.872;2024-01-15T00:32:59;-2.35;67.19
75683;HTU21D;64295;44.772;39.872;2024-01-15T00:35:25;-2.33;67.15
75683;HTU21D;64295;44.772;39.872;2024-01-15T00:37:51;-2.28;67.09
75683;HTU21D;64295;44.772;39.872;2024-01-15T00:40:17;-2.22;66.98
75683;HTU21D;64295;44.772;39.872;2024-01-15T00:42:43;-2.24;67.01
75683;HTU21D;64295;44.772;39.872;2024-01-15T00:45:09;-2.22;67.08
75683;HTU21D;64295;44.772;39.872;2024-01-15T00:47:54;-2.24;67.07
75683;HTU21D;64295;44.772;39.872;2024-01-15T00:50:22;-2.28;67.19
75683;HTU21D;64295;44.772;39.872;2024-01-15T00:52:47;-2.26;67.17
75683;HTU21D;64295;44.772;39.872;2024-01-15T00:55:14;-2.22;67.14
75683;HTU21D;64295;44.772;39.872;2024-01-15T00:57:40;-2.23;67.14
75683;HTU21D;64295;44.772;39.872;2024-01-15T01:02:50;-2.17;67.11
75683;HTU21D;64295;44.772;39.872;2024-01-15T01:05:16;-2.15;67.06
75683;HTU21D;64295;44.772;39.872;2024-01-15T01:07:42;-2.13;67.03
75683;HTU21D;64295;44.772;39.872;2024-01-15T01:10:08;-2.15;67.02
75683;HTU21D;64295;44.772;39.872;2024-01-15T01:12:34;-2.21;67.18
75683;HTU21D;64295;44.772;39.872;2024-01-15T01:15:00;-2.27;67.30
75683;HTU21D;64295;44.772;39.872;2024-01-15T01:17:26;-2.29;67.39
75683;HTU21D;64295;44.772;39.872;2024-01-15T01:19:52;-2.23;67.39
75683;HTU21D;64295;44.772;39.872;2024-01-15T01:22:18;-2.22;67.26
75683;HTU21D;64295;44.772;39.872;2024-01-15T01:24:44;-2.22;67.20
75683;HTU21D;64295;44.772;39.872;2024-01-15T01:27:10;-2.27;67.27
75683;HTU21D;64295;44.772;39.872;2024-01-15T01:29:36;-2.31;67.37
75683;HTU21D;64295;44.772;39.872;2024-01-15T01:32:02;-2.33;67.48
75683;HTU21D;64295;44.772;39.872;2024-01-15T01:34:28;-2.32;67.46
75683;HTU21D;64295;44.772;39.872;2024-01-15T01:36:55;-2.27;67.36
75683;HTU21D;64295;44.772;39.872;2024-01-15T01:39:21;-2.22;67.32
75683;HTU21D;64295;44.772;39.872;2024-01-15T01:41:47;-2.18;67.30
75683;HTU21D;64295;44.772;39.872;2024-01-15T01:44:13;-2.14;67.20
75683;HTU21D;64295;44.772;39.872;2024-01-15T01:46:39;-2.14;67.17
75683;HTU21D;64295;44.772;39.872;2024-01-15T01:49:07;-2.13;67.15
75683;HTU21D;64295;44.772;39.872;2024-01-15T01:51:35;-2.18;67.20
75683;HTU21D;64295;44.772;39.872;2024-01-15T01:54:04;-2.22;67.30
75683;HTU21D;64295;44.772;39.872;2024-01-15T01:56:30;-2.23;67.34
75683;HTU21D;64295;44.772;39.872;2024-01-15T01:58:56;-2.18;67.33
75683;HTU21D;64295;44.772;39.872;2024-01-15T02:01:22;-2.17;67.27
75683;HTU21D;64295;44.772;39.872;2024-01-15T02:03:48;-2.16;67.23
75683;HTU21D;64295;44.772;39.872;2024-01-15T02:06:14;-2.19;67.27
75683;HTU21D;64295;44.772;39.872;2024-01-15T02:08:43;-2.19;67.30
75683;HTU21D;64295;44.772;39.872;2024-01-15T02:11:27;-2.19;67.31
75683;HTU21D;64295;44.772;39.872;2024-01-15T02:13:53;-2.18;67.30
75683;HTU21D;64295;44.772;39.872;2024-01-15T02:16:19;-2.19;67.27
75683;HTU21D;64295;44.772;39.872;2024-01-15T02:18:46;-2.18;67.34
75683;HTU21D;64295;44.772;39.872;2024-01-15T02:21:12;-2.10;67.25
75683;HTU21D;64295;44.772;39.872;2024-01-15T02:23:38;-2.02;67.14
75683;HTU21D;64295;44.772;39.872;2024-01-15T02:26:05;-1.97;67.04
75683;HTU21D;64295;44.772;39.872;2024-01-15T02:28:32;-1.93;67.01
75683;HTU21D;64295;44.772;39.872;2024-01-15T02:30:59;-1.87;66.94
75683;HTU21D;64295;44.772;39.872;2024-01-15T02:33:25;-1.82;66.88
75683;HTU21D;64295;44.772;39.872;2024-01-15T02:35:51;-1.77;66.82
75683;HTU21D;64295;44.772;39.872;2024-01-15T02:38:17;-1.75;66.82
75683;HTU21D;64295;44.772;39.872;2024-01-15T02:40:44;-1.75;66.87
75683;HTU21D;64295;44.772;39.872;2024-01-15T02:43:10;-1.72;66.92
75683;HTU21D;64295;44.772;39.872;2024-01-15T02:45:37;-1.70;66.88
75683;HTU21D;64295;44.772;39.872;2024-01-15T02:48:03;-1.65;66.85
75683;HTU21D;64295;44.772;39.872;2024-01-15T02:50:29;-1.62;66.82
75683;HTU21D;64295;44.772;39.872;2024-01-15T02:52:55;-1.58;66.80
75683;HTU21D;64295;44.772;39.872;2024-01-15T02:55:21;-1.52;66.67
75683;HTU21D;64295;44.772;39.872;2024-01-15T02:57:47;-1.50;66.70
75683;HTU21D;64295;44.772;39.872;2024-01-15T03:00:13;-1.45;66.71
75683;HTU21D;64295;44.772;39.872;2024-01-15T03:02:40;-1.43;66.67
75683;HTU21D;64295;44.772;39.872;2024-01-15T03:05:12;-1.40;66.64
75683;HTU21D;64295;44.772;39.872;2024-01-15T03:07:57;-1.33;66.65
75683;HTU21D;64295;44.772;39.872;2024-01-15T03:10:22;-1.29;66.56
75683;HTU21D;64295;44.772;39.872;2024-01-15T03:12:48;-1.32;66.61
75683;HTU21D;64295;44.772;39.872;2024-01-15T03:15:14;-1.31;66.70
75683;HTU21D;64295;44.772;39.872;2024-01-15T03:17:43;-1.24;66.65
75683;HTU21D;64295;44.772;39.872;2024-01-15T03:20:10;-1.24;66.62
75683;HTU21D;64295;44.772;39.872;2024-01-15T03:22:36;-1.29;66.72
75683;HTU21D;64295;44.772;39.872;2024-01-15T03:25:02;-1.36;66.84
75683;HTU21D;64295;44.772;39.872;2024-01-15T03:27:29;-1.38;66.92
75683;HTU21D;64295;44.772;39.872;2024-01-15T03:29:55;-1.39;66.92
75683;HTU21D;64295;44.772;39.872;2024-01-15T03:35:05;-1.41;66.98
75683;HTU21D;64295;44.772;39.872;2024-01-15T03:37:31;-1.48;67.07
75683;HTU21D;64295;44.772;39.872;2024-01-15T03:39:57;-1.55;67.17
75683;HTU21D;64295;44.772;39.872;2024-01-15T03:42:23;-1.65;67.40
75683;HTU21D;64295;44.772;39.872;2024-01-15T03:44:49;-1.71;67.48
75683;HTU21D;64295;44.772;39.872;2024-01-15T03:47:15;-1.75;67.61
75683;HTU21D;64295;44.772;39.872;2024-01-15T03:49:59;-1.78;67.58
75683;HTU21D;64295;44.772;39.872;2024-01-15T03:52:25;-1.77;67.65
75683;HTU21D;64295;44.772;39.872;2024-01-15T03:54:51;-1.74;67.50
75683;HTU21D;64295;44.772;39.872;2024-01-15T03:57:17;-1.78;67.49
75683;HTU21D;64295;44.772;39.872;2024-01-15T04:00:02;-1.82;67.62
75683;HTU21D;64295;44.772;39.872;2024-01-15T04:02:30;-1.77;67.60
75683;HTU21D;64295;44.772;39.872;2024-01-15T04:04:56;-1.69;67.44
75683;HTU21D;64295;44.772;39.872;2024-01-15T04:07:22;-1.63;67.33
75683;HTU21D;64295;44.772;39.872;2024-01-15T04:09:48;-1.57;67.20
75683;HTU21D;64295;44.772;39.872;2024-01-15T04:12:14;-1.57;67.19
75683;HTU21D;64295;44.772;39.872;2024-01-15T04:14:40;-1.54;67.17
75683;HTU21D;64295;44.772;39.872;2024-01-15T04:17:06;-1.54;67.12
75683;HTU21D;64295;44.772;39.872;2024-01-15T04:19:31;-1.58;67.19
75683;HTU21D;64295;44.772;39.872;2024-01-15T04:21:57;-1.53;67.20
75683;HTU21D;64295;44.772;39.872;2024-01-15T04:24:23;-1.47;67.07
75683;HTU21D;64295;44.772;39.872;2024-01-15T04:26:49;-1.46;67.04
75683;HTU21D;64295;44.772;39.872;2024-01-15T04:29:15;-1.44;66.99
75683;HTU21D;64295;44.772;39.872;2024-01-15T04:31:41;-1.43;67.03
75683;HTU21D;64295;44.772;39.872;2024-01-15T04:34:07;-1.42;67.05
75683;HTU21D;64295;44.772;39.872;2024-01-15T04:36:39;-1.36;66.98
75683;HTU21D;64295;44.772;39.872;2024-01-15T04:39:05;-1.31;66.95
75683;HTU21D;64295;44.772;39.872;2024-01-15T04:41:31;-1.28;66.91
75683;HTU21D;64295;44.772;39.872;2024-01-15T04:43:56;-1.25;66.83
75683;HTU21D;64295;44.772;39.872;2024-01-15T04:46:22;-1.25;66.88
75683;HTU21D;64295;44.772;39.872;2024-01-15T04:48:48;-1.24;66.91
75683;HTU21D;64295;44.772;39.872;2024-01-15T04:51:14;-1.21;66.92
75683;HTU21D;64295;44.772;39.872;2024-01-15T04:53:41;-1.19;66.91
75683;HTU21D;64295;44.772;39.872;2024-01-15T04:56:07;-1.17;66.91
75683;HTU21D;64295;44.772;39.872;2024-01-15T04:58:33;-1.15;66.96
75683;HTU21D;64295;44.772;39.872;2024-01-15T05:00:59;-1.11;66.91
75683;HTU21D;64295;44.772;39.872;2024-01-15T05:03:25;-1.06;66.85
75683;HTU21D;64295;44.772;39.872;2024-01-15T05:05:51;-1.04;66.86
75683;HTU21D;64295;44.772;39.872;2024-01-15T05:08:17;-0.99;66.85
75683;HTU21D;64295;44.772;39.872;2024-01-15T05:10:43;-0.91;66.80
75683;HTU21D;64295;44.772;39.872;2024-01-15T05:13:09;-0.77;66.72
75683;HTU21D;64295;44.772;39.872;2024-01-15T05:15:38;-0.49;66.43
75683;HTU21D;64295;44.772;39.872;2024-01-15T05:18:04;-0.03;65.94
75683;HTU21D;64295;44.772;39.872;2024-01-15T05:20:30;0.42;65.29
75683;HTU21D;64295;44.772;39.872;2024-01-15T05:22:56;0.76;64.86
75683;HTU21D;64295;44.772;39.872;2024-01-15T05:25:41;1.05;64.55
75683;HTU21D;64295;44.772;39.872;2024-01-15T05:28:07;1.25;64.49
75683;HTU21D;64295;44.772;39.872;2024-01-15T05:30:33;1.47;64.42
75683;HTU21D;64295;44.772;39.872;2024-01-15T05:32:59;1.65;64.36
75683;HTU21D;64295;44.772;39.872;2024-01-15T05:35:26;1.86;64.29
75683;HTU21D;64295;44.772;39.872;2024-01-15T05:37:52;2.03;64.26
75683;HTU21D;64295;44.772;39.872;2024-01-15T05:40:18;2.17;64.30
75683;HTU21D;64295;44.772;39.872;2024-01-15T05:42:44;2.29;64.34
75683;HTU21D;64295;44.772;39.872;2024-01-15T05:45:10;2.38;64.44
75683;HTU21D;64295;44.772;39.872;2024-01-15T05:47:36;2.41;64.58
75683;HTU21D;64295;44.772;39.872;2024-01-15T05:50:02;2.45;64.75
75683;HTU21D;64295;44.772;39.872;2024-01-15T05:52:28;2.51;64.87
75683;HTU21D;64295;44.772;39.872;2024-01-15T05:54:54;2.57;64.95
75683;HTU21D;64295;44.772;39.872;2024-01-15T05:57:19;2.68;65.01
75683;HTU21D;64295;44.772;39.872;2024-01-15T05:59:45;2.79;64.98
75683;HTU21D;64295;44.772;39.872;2024-01-15T06:02:11;2.91;64.97
75683;HTU21D;64295;44.772;39.872;2024-01-15T06:04:37;3.00;64.95
75683;HTU21D;64295;44.772;39.872;2024-01-15T06:07:03;3.10;64.95
75683;HTU21D;64295;44.772;39.872;2024-01-15T06:09:29;3.20;64.99
75683;HTU21D;64295;44.772;39.872;2024-01-15T06:11:55;3.31;65.00
75683;HTU21D;64295;44.772;39.872;2024-01-15T06:14:21;3.41;65.02
75683;HTU21D;64295;44.772;39.872;2024-01-15T06:16:47;3.46;65.06
75683;HTU21D;64295;44.772;39.872;2024-01-15T06:19:16;3.54;65.12
75683;HTU21D;64295;44.772;39.872;2024-01-15T06:21:41;3.67;65.08
75683;HTU21D;64295;44.772;39.872;2024-01-15T06:24:07;3.87;64.90
75683;HTU21D;64295;44.772;39.872;2024-01-15T06:26:35;3.89;64.95
75683;HTU21D;64295;44.772;39.872;2024-01-15T06:31:46;3.91;65.31
75683;HTU21D;64295;44.772;39.872;2024-01-15T06:34:12;3.94;65.44
75683;HTU21D;64295;44.772;39.872;2024-01-15T06:36:38;4.01;65.47
75683;HTU21D;64295;44.772;39.872;2024-01-15T06:39:04;4.10;65.41
75683;HTU21D;64295;44.772;39.872;2024-01-15T06:41:30;4.15;65.37
75683;HTU21D;64295;44.772;39.872;2024-01-15T06:43:56;4.12;65.50
75683;HTU21D;64295;44.772;39.872;2024-01-15T06:46:22;4.07;65.69
75683;HTU21D;64295;44.772;39.872;2024-01-15T06:48:49;4.07;65.85
75683;HTU21D;64295;44.772;39.872;2024-01-15T06:51:16;4.17;65.85
75683;HTU21D;64295;44.772;39.872;2024-01-15T06:53:42;4.32;65.64
75683;HTU21D;64295;44.772;39.872;2024-01-15T06:56:08;4.48;65.42
75683;HTU21D;64295;44.772;39.872;2024-01-15T06:58:34;4.54;65.30
75683;HTU21D;64295;44.772;39.872;2024-01-15T07:01:00;4.54;65.39
75683;HTU21D;64295;44.772;39.872;2024-01-15T07:03:27;4.54;65.56
75683;HTU21D;64295;44.772;39.872;2024-01-15T07:05:52;4.64;65.53
75683;HTU21D;64295;44.772;39.872;2024-01-15T07:08:18;4.87;65.29
75683;HTU21D;64295;44.772;39.872;2024-01-15T07:10:44;5.04;64.99
75683;HTU21D;64295;44.772;39.872;2024-01-15T07:13:10;5.07;64.96
75683;HTU21D;64295;44.772;39.872;2024-01-15T07:15:36;5.08;65.11
75683;HTU21D;64295;44.772;39.872;2024-01-15T07:18:02;5.21;65.08
75683;HTU21D;64295;44.772;39.872;2024-01-15T07:20:28;5.36;64.92
75683;HTU21D;64295;44.772;39.872;2024-01-15T07:22:54;5.52;64.72
75683;HTU21D;64295;44.772;39.872;2024-01-15T07:25:20;5.62;64.63
75683;HTU21D;64295;44.772;39.872;2024-01-15T07:27:46;5.71;64.61
75683;HTU21D;64295;44.772;39.872;2024-01-15T07:30:30;5.76;64.62
75683;HTU21D;64295;44.772;39.872;2024-01-15T07:32:56;5.85;64.69
75683;HTU21D;64295;44.772;39.872;2024-01-15T07:35:22;5.98;64.55
75683;HTU21D;64295;44.772;39.872;2024-01-15T07:37:48;6.07;64.46
75683;HTU21D;64295;44.772;39.872;2024-01-15T07:40:14;6.14;64.47
75683;HTU21D;64295;44.772;39.872;2024-01-15T07:42:40;6.28;64.39
75683;HTU21D;64295;44.772;39.872;2024-01-15T07:45:09;6.42;64.28
75683;HTU21D;64295;44.772;39.872;2024-01-15T07:47:35;6.60;64.09
75683;HTU21D;64295;44.772;39.872;2024-01-15T07:50:02;6.64;64.04
75683;HTU21D;64295;44.772;39.872;2024-01-15T07:52:28;6.61;64.29
75683;HTU21D;64295;44.772;39.872;2024-01-15T07:54:54;6.67;64.40
75683;HTU21D;64295;44.772;39.872;2024-01-15T07:57:20;6.79;64.22
75683;HTU21D;64295;44.772;39.872;2024-01-15T07:59:46;6.71;64.40
75683;HTU21D;64295;44.772;39.872;2024-01-15T08:02:31;6.76;64.50
75683;HTU21D;64295;44.772;39.872;2024-01-15T08:05:10;6.69;64.72
75683;HTU21D;64295;44.772;39.872;2024-01-15T08:07:36;6.76;64.77
75683;HTU21D;64295;44.772;39.872;2024-01-15T08:10:02;6.90;64.57
75683;HTU21D;64295;44.772;39.872;2024-01-15T08:12:28;7.08;64.59
75683;HTU21D;64295;44.772;39.872;2024-01-15T08:14:54;7.42;64.14
75683;HTU21D;64295;44.772;39.872;2024-01-15T08:17:20;7.61;63.53
75683;HTU21D;64295;44.772;39.872;2024-01-15T08:19:46;7.54;63.74
75683;HTU21D;64295;44.772;39.872;2024-01-15T08:22:12;7.53;63.91
75683;HTU21D;64295;44.772;39.872;2024-01-15T08:24:38;7.56;63.98
75683;HTU21D;64295;44.772;39.872;2024-01-15T08:27:04;7.61;63.98
75683;HTU21D;64295;44.772;39.872;2024-01-15T08:29:30;7.70;63.88
75683;HTU21D;64295;44.772;39.872;2024-01-15T08:31:59;7.57;63.99
75683;HTU21D;64295;44.772;39.872;2024-01-15T08:34:25;7.37;64.61
75683;HTU21D;64295;44.772;39.872;2024-01-15T08:36:51;7.37;64.57
75683;HTU21D;64295;44.772;39.872;2024-01-15T08:39:16;7.37;64.76
75683;HTU21D;64295;44.772;39.872;2024-01-15T08:41:45;7.46;64.45
75683;HTU21D;64295;44.772;39.872;2024-01-15T08:44:12;7.43;64.47
75683;HTU21D;64295;44.772;39.872;2024-01-15T08:46:38;7.49;64.44
75683;HTU21D;64295;44.772;39.872;2024-01-15T08:49:04;7.52;64.30
75683;HTU21D;64295;44.772;39.872;2024-01-15T08:51:31;7.57;64.28
75683;HTU21D;64295;44.772;39.872;2024-01-15T08:53:57;7.77;63.91
75683;HTU21D;64295;44.772;39.872;2024-01-15T08:56:23;7.93;63.48
75683;HTU21D;64295;44.772;39.872;2024-01-15T08:58:49;8.12;63.21
75683;HTU21D;64295;44.772;39.872;2024-01-15T09:01:15;8.21;62.98
75683;HTU21D;64295;44.772;39.872;2024-01-15T09:03:42;8.30;62.70
75683;HTU21D;64295;44.772;39.872;2024-01-15T09:06:08;8.35;62.61
75683;HTU21D;64295;44.772;39.872;2024-01-15T09:08:35;8.38;62.47
75683;HTU21D;64295;44.772;39.872;2024-01-15T09:11:02;8.34;62.53
75683;HTU21D;64295;44.772;39.872;2024-01-15T09:13:29;8.16;62.53
75683;HTU21D;64295;44.772;39.872;2024-01-15T09:15:55;7.89;62.79
75683;HTU21D;64295;44.772;39.872;2024-01-15T09:21:05;8.04;62.24
75683;HTU21D;64295;44.772;39.872;2024-01-15T09:26:15;8.19;61.70
75683;HTU21D;64295;44.772;39.872;2024-01-15T09:28:41;8.04;61.71
75683;HTU21D;64295;44.772;39.872;2024-01-15T09:31:26;7.79;61.64
75683;HTU21D;64295;44.772;39.872;2024-01-15T09:33:52;7.69;61.76
75683;HTU21D;64295;44.772;39.872;2024-01-15T09:36:22;7.60;61.84
75683;HTU21D;64295;44.772;39.872;2024-01-15T09:38:51;7.54;62.12
75683;HTU21D;64295;44.772;39.872;2024-01-15T09:41:17;7.81;61.67
75683;HTU21D;64295;44.772;39.872;2024-01-15T09:43:43;8.07;61.18
75683;HTU21D;64295;44.772;39.872;2024-01-15T09:46:10;8.07;61.07
75683;HTU21D;64295;44.772;39.872;2024-01-15T09:48:36;8.17;61.12
75683;HTU21D;64295;44.772;39.872;2024-01-15T09:51:05;8.38;60.82
75683;HTU21D;64295;44.772;39.872;2024-01-15T09:53:32;8.39;60.73
75683;HTU21D;64295;44.772;39.872;2024-01-15T09:55:58;8.44;61.00
75683;HTU21D;64295;44.772;39.872;2024-01-15T09:58:24;8.43;60.99
75683;HTU21D;64295;44.772;39.872;2024-01-15T10:03:36;8.67;60.83
75683;HTU21D;64295;44.772;39.872;2024-01-15T10:06:04;8.73;60.66
75683;HTU21D;64295;44.772;39.872;2024-01-15T10:08:31;8.83;60.67
75683;HTU21D;64295;44.772;39.872;2024-01-15T10:10:58;8.94;60.53
75683;HTU21D;64295;44.772;39.872;2024-01-15T10:13:24;8.96;60.33
75683;HTU21D;64295;44.772;39.872;2024-01-15T10:15:50;8.93;60.31
75683;HTU21D;64295;44.772;39.872;2024-01-15T10:18:16;8.91;60.38
75683;HTU21D;64295;44.772;39.872;2024-01-15T10:20:42;8.97;60.39
75683;HTU21D;64295;44.772;39.872;2024-01-15T10:23:27;9.02;60.22
75683;HTU21D;64295;44.772;39.872;2024-01-15T10:25:53;9.01;60.40
75683;HTU21D;64295;44.772;39.872;2024-01-15T10:28:19;9.06;60.22
75683;HTU21D;64295;44.772;39.872;2024-01-15T10:30:45;9.10;60.20
75683;HTU21D;64295;44.772;39.872;2024-01-15T10:36:16;9.23;60.22
75683;HTU21D;64295;44.772;39.872;2024-01-15T10:38:46;9.32;60.18
75683;HTU21D;64295;44.772;39.872;2024-01-15T10:41:12;9.38;60.19
75683;HTU21D;64295;44.772;39.872;2024-01-15T10:43:38;9.40;60.02
75683;HTU21D;64295;44.772;39.872;2024-01-15T10:46:07;9.38;60.08
75683;HTU21D;64295;44.772;39.872;2024-01-15T10:48:34;9.34;60.11
75683;HTU21D;64295;44.772;39.872;2024-01-15T10:51:01;9.27;60.04
75683;HTU21D;64295;44.772;39.872;2024-01-15T10:53:38;9.25;59.98
75683;HTU21D;64295;44.772;39.872;2024-01-15T10:56:05;9.33;59.83
75683;HTU21D;64295;44.772;39.872;2024-01-15T10:58:31;9.36;59.64
75683;HTU21D;64295;44.772;39.872;2024-01-15T11:00:59;9.35;59.57
75683;HTU21D;64295;44.772;39.872;2024-01-15T11:03:25;9.33;59.45
75683;HTU21D;64295;44.772;39.872;2024-01-15T11:05:53;9.39;59.00
75683;HTU21D;64295;44.772;39.872;2024-01-15T11:08:20;9.37;58.87
75683;HTU21D;64295;44.772;39.872;2024-01-15T11:10:50;9.33;58.89
75683;HTU21D;64295;44.772;39.872;2024-01-15T11:16:05;9.21;58.90
75683;HTU21D;64295;44.772;39.872;2024-01-15T11:19:01;9.20;58.58
75683;HTU21D;64295;44.772;39.872;2024-01-15T11:21:28;9.22;58.63
75683;HTU21D;64295;44.772;39.872;2024-01-15T11:23:59;9.20;58.40
75683;HTU21D;64295;44.772;39.872;2024-01-15T11:31:57;9.19;58.14
75683;HTU21D;64295;44.772;39.872;2024-01-15T11:34:53;9.17;58.13
75683;HTU21D;64295;44.772;39.872;2024-01-15T11:37:19;9.18;57.88
75683;HTU21D;64295;44.772;39.872;2024-01-15T11:39:46;9.12;57.87
75683;HTU21D;64295;44.772;39.872;2024-01-15T11:42:13;9.12;57.67
75683;HTU21D;64295;44.772;39.872;2024-01-15T11:44:40;9.09;57.68
75683;HTU21D;64295;44.772;39.872;2024-01-15T11:47:10;9.09;57.54
75683;HTU21D;64295;44.772;39.872;2024-01-15T11:52:37;9.03;57.39
75683;HTU21D;64295;44.772;39.872;2024-01-15T11:55:27;9.01;57.29
75683;HTU21D;64295;44.772;39.872;2024-01-15T11:57:57;9.10;56.94
75683;HTU21D;64295;44.772;39.872;2024-01-15T12:00:24;9.08;56.81
75683;HTU21D;64295;44.772;39.872;2024-01-15T12:02:50;9.01;56.65
75683;HTU21D;64295;44.772;39.872;2024-01-15T12:05:20;8.97;56.51
75683;HTU21D;64295;44.772;39.872;2024-01-15T12:07:49;8.93;56.51
75683;HTU21D;64295;44.772;39.872;2024-01-15T12:10:20;9.02;56.61
75683;HTU21D;64295;44.772;39.872;2024-01-15T12:13:00;9.06;56.56
75683;HTU21D;64295;44.772;39.872;2024-01-15T12:15:30;9.02;56.62
75683;HTU21D;64295;44.772;39.872;2024-01-15T12:18:16;8.96;56.81
75683;HTU21D;64295;44.772;39.872;2024-01-15T12:20:43;9.03;56.42
75683;HTU21D;64295;44.772;39.872;2024-01-15T12:23:10;9.01;56.29
75683;HTU21D;64295;44.772;39.872;2024-01-15T12:25:36;8.98;56.23
75683;HTU21D;64295;44.772;39.872;2024-01-15T12:28:03;9.02;56.27
75683;HTU21D;64295;44.772;39.872;2024-01-15T12:30:30;9.01;55.89
75683;HTU21D;64295;44.772;39.872;2024-01-15T12:33:06;8.94;55.69
75683;HTU21D;64295;44.772;39.872;2024-01-15T12:35:36;8.92;55.90
75683;HTU21D;64295;44.772;39.872;2024-01-15T12:38:02;8.91;55.87
75683;HTU21D;64295;44.772;39.872;2024-01-15T12:40:28;8.92;55.85
75683;HTU21D;64295;44.772;39.872;2024-01-15T12:42:55;8.92;55.60
75683;HTU21D;64295;44.772;39.872;2024-01-15T12:45:40;8.94;55.57
75683;HTU21D;64295;44.772;39.872;2024-01-15T12:48:06;8.90;55.70
75683;HTU21D;64295;44.772;39.872;2024-01-15T12:50:33;8.87;55.50
75683;HTU21D;64295;44.772;39.872;2024-01-15T12:53:00;8.88;55.27
75683;HTU21D;64295;44.772;39.872;2024-01-15T12:55:26;8.94;55.17
75683;HTU21D;64295;44.772;39.872;2024-01-15T12:57:52;8.91;54.91
75683;HTU21D;64295;44.772;39.872;2024-01-15T13:00:20;8.86;55.07
75683;HTU21D;64295;44.772;39.872;2024-01-15T13:02:46;8.83;54.84
75683;HTU21D;64295;44.772;39.872;2024-01-15T13:05:12;8.86;54.81
75683;HTU21D;64295;44.772;39.872;2024-01-15T13:07:38;8.80;54.75
75683;HTU21D;64295;44.772;39.872;2024-01-15T13:10:05;8.72;54.87
75683;HTU21D;64295;44.772;39.872;2024-01-15T13:12:33;8.67;54.87
75683;HTU21D;64295;44.772;39.872;2024-01-15T13:15:00;8.64;54.71
75683;HTU21D;64295;44.772;39.872;2024-01-15T13:17:29;8.70;54.51
75683;HTU21D;64295;44.772;39.872;2024-01-15T13:19:54;8.67;54.62
75683;HTU21D;64295;44.772;39.872;2024-01-15T13:22:20;8.60;54.59
75683;HTU21D;64295;44.772;39.872;2024-01-15T13:24:46;8.55;54.70
75683;HTU21D;64295;44.772;39.872;2024-01-15T13:27:12;8.49;54.81
75683;HTU21D;64295;44.772;39.872;2024-01-15T13:29:38;8.45;54.86
75683;HTU21D;64295;44.772;39.872;2024-01-15T13:32:05;8.41;55.01
75683;HTU21D;64295;44.772;39.872;2024-01-15T13:37:17;8.31;54.97
75683;HTU21D;64295;44.772;39.872;2024-01-15T13:39:43;8.22;54.91
75683;HTU21D;64295;44.772;39.872;2024-01-15T13:42:09;8.15;55.10
75683;HTU21D;64295;44.772;39.872;2024-01-15T13:44:37;8.07;55.26
75683;HTU21D;64295;44.772;39.872;2024-01-15T13:47:03;8.02;55.39
75683;HTU21D;64295;44.772;39.872;2024-01-15T13:49:49;7.94;55.49
75683;HTU21D;64295;44.772;39.872;2024-01-15T13:52:15;7.85;55.71
75683;HTU21D;64295;44.772;39.872;2024-01-15T13:54:41;7.83;55.87
75683;HTU21D;64295;44.772;39.872;2024-01-15T13:57:07;7.92;55.65
75683;HTU21D;64295;44.772;39.872;2024-01-15T13:59:33;7.79;55.81
75683;HTU21D;64295;44.772;39.872;2024-01-15T14:01:59;7.72;56.05
75683;HTU21D;64295;44.772;39.872;2024-01-15T14:04:25;7.67;56.03
75683;HTU21D;64295;44.772;39.872;2024-01-15T14:06:52;7.75;55.97
75683;HTU21D;64295;44.772;39.872;2024-01-15T14:09:18;7.68;56.03
75683;HTU21D;64295;44.772;39.872;2024-01-15T14:11:44;7.61;56.12
75683;HTU21D;64295;44.772;39.872;2024-01-15T14:14:09;7.52;56.25
75683;HTU21D;64295;44.772;39.872;2024-01-15T14:16:35;7.46;56.35
75683;HTU21D;64295;44.772;39.872;2024-01-15T14:21:46;7.43;56.43
75683;HTU21D;64295;44.772;39.872;2024-01-15T14:24:12;7.35;56.46
75683;HTU21D;64295;44.772;39.872;2024-01-15T14:26:38;7.28;56.59
75683;HTU21D;64295;44.772;39.872;2024-01-15T14:29:04;7.22;56.68
75683;HTU21D;64295;44.772;39.872;2024-01-15T14:31:31;7.17;56.71
75683;HTU21D;64295;44.772;39.872;2024-01-15T14:33:58;7.13;56.75
75683;HTU21D;64295;44.772;39.872;2024-01-15T14:36:25;7.08;56.85
75683;HTU21D;64295;44.772;39.872;2024-01-15T14:38:50;7.11;56.80
75683;HTU21D;64295;44.772;39.872;2024-01-15T14:41:16;7.10;56.76
75683;HTU21D;64295;44.772;39.872;2024-01-15T14:43:42;7.09;56.75
75683;HTU21D;64295;44.772;39.872;2024-01-15T14:48:53;7.19;56.61
75683;HTU21D;64295;44.772;39.872;2024-01-15T14:51:19;7.19;56.55
75683;HTU21D;64295;44.772;39.872;2024-01-15T14:53:45;7.18;56.61
75683;HTU21D;64295;44.772;39.872;2024-01-15T14:56:11;7.13;56.73
75683;HTU21D;64295;44.772;39.872;2024-01-15T14:58:37;7.13;56.78
75683;HTU21D;64295;44.772;39.872;2024-01-15T15:01:03;7.13;56.64
75683;HTU21D;64295;44.772;39.872;2024-01-15T15:03:29;7.04;56.74
75683;HTU21D;64295;44.772;39.872;2024-01-15T15:05:55;6.97;56.88
75683;HTU21D;64295;44.772;39.872;2024-01-15T15:08:21;6.90;56.91
75683;HTU21D;64295;44.772;39.872;2024-01-15T15:10:47;6.88;56.91
75683;HTU21D;64295;44.772;39.872;2024-01-15T15:13:13;6.86;56.93
75683;HTU21D;64295;44.772;39.872;2024-01-15T15:15:39;6.86;56.91
75683;HTU21D;64295;44.772;39.872;2024-01-15T15:20:50;6.84;56.94
75683;HTU21D;64295;44.772;39.872;2024-01-15T15:23:17;6.80;57.00
75683;HTU21D;64295;44.772;39.872;2024-01-15T15:25:44;6.75;57.03
75683;HTU21D;64295;44.772;39.872;2024-01-15T15:28:10;6.70;57.08
75683;HTU21D;64295;44.772;39.872;2024-01-15T15:30:37;6.80;57.14
75683;HTU21D;64295;44.772;39.872;2024-01-15T15:33:03;6.82;56.94
75683;HTU21D;64295;44.772;39.872;2024-01-15T15:35:31;6.94;56.99
75683;HTU21D;64295;44.772;39.872;2024-01-15T15:37:57;6.99;56.74
75683;HTU21D;64295;44.772;39.872;2024-01-15T15:40:23;7.00;56.82
75683;HTU21D;64295;44.772;39.872;2024-01-15T15:42:52;6.96;56.89
75683;HTU21D;64295;44.772;39.872;2024-01-15T15:45:18;6.94;57.00
75683;HTU21D;64295;44.772;39.872;2024-01-15T15:47:44;6.91;57.06
75683;HTU21D;64295;44.772;39.872;2024-01-15T15:50:10;6.93;57.11
75683;HTU21D;64295;44.772;39.872;2024-01-15T15:52:55;6.89;57.19
75683;HTU21D;64295;44.772;39.872;2024-01-15T15:58:06;6.85;57.32